createdAt,value
2018-11-23T00:00:15.994Z,0.63
2018-11-23T00:02:45.782Z,0.61
2018-11-23T00:05:14.350Z,0.63
2018-11-23T00:07:43.352Z,0.61
2018-11-23T00:10:13.941Z,0.63
2018-11-23T00:12:42.899Z,0.63
2018-11-23T00:15:16.423Z,0.63
2018-11-23T00:17:45.036Z,0.65
2018-11-23T00:20:24.601Z,0.65
2018-11-23T00:22:53.251Z,0.65
2018-11-23T00:25:23.385Z,0.63
2018-11-23T00:27:52.363Z,0.63
2018-11-23T00:30:22.141Z,0.63
2018-11-23T00:32:51.266Z,0.64
2018-11-23T00:35:21.678Z,0.65
2018-11-23T00:37:51.124Z,0.64
2018-11-23T00:40:21.922Z,0.66
2018-11-23T00:42:51.098Z,0.69
2018-11-23T00:45:19.856Z,0.69
2018-11-23T00:47:50.154Z,0.69
2018-11-23T00:50:19.891Z,0.72
2018-11-23T00:52:48.836Z,0.71
2018-11-23T00:55:18.718Z,0.71
2018-11-23T00:57:47.362Z,0.73
2018-11-23T01:00:19.727Z,0.72
2018-11-23T01:02:48.424Z,0.72
2018-11-23T01:05:18.946Z,0.75
2018-11-23T01:07:48.999Z,0.77
2018-11-23T01:10:18.995Z,0.77
2018-11-23T01:12:48.862Z,0.78
2018-11-23T01:15:23.103Z,0.79
2018-11-23T01:17:51.774Z,0.80
2018-11-23T01:20:27.433Z,0.81
2018-11-23T01:22:56.853Z,0.82
2018-11-23T01:25:26.413Z,0.84
2018-11-23T01:27:55.677Z,0.81
2018-11-23T01:30:26.680Z,0.84
2018-11-23T01:32:55.158Z,0.84
2018-11-23T01:35:23.774Z,0.86
2018-11-23T01:37:53.519Z,0.86
2018-11-23T01:40:23.432Z,0.89
2018-11-23T01:42:52.643Z,0.89
2018-11-23T01:45:21.238Z,0.90
2018-11-23T01:47:50.786Z,0.93
2018-11-23T01:50:23.848Z,0.95
2018-11-23T01:52:52.788Z,0.95
2018-11-23T01:55:22.259Z,0.95
2018-11-23T01:57:50.863Z,0.91
2018-11-23T02:00:21.829Z,0.95
2018-11-23T02:02:51.187Z,0.93
2018-11-23T02:05:19.856Z,0.94
2018-11-23T02:07:48.546Z,0.97
2018-11-23T02:10:17.856Z,1.01
2018-11-23T02:12:46.454Z,1.04
2018-11-23T02:15:17.087Z,1.07
2018-11-23T02:17:46.086Z,1.11
2018-11-23T02:20:15.920Z,1.12
2018-11-23T02:22:46.305Z,1.16
2018-11-23T02:25:15.071Z,1.17
2018-11-23T02:27:43.600Z,1.20
2018-11-23T02:30:16.662Z,1.21
2018-11-23T02:32:45.434Z,1.19
2018-11-23T02:35:14.798Z,1.21
2018-11-23T02:37:43.410Z,1.27
2018-11-23T02:40:13.099Z,1.28
2018-11-23T02:42:42.140Z,1.27
2018-11-23T02:45:13.227Z,1.29
2018-11-23T02:47:42.684Z,1.31
2018-11-23T02:50:11.295Z,1.34
2018-11-23T02:52:40.622Z,1.33
2018-11-23T02:55:10.405Z,1.32
2018-11-23T02:57:39.745Z,1.32
2018-11-23T03:00:11.755Z,1.33
2018-11-23T03:02:40.530Z,1.32
2018-11-23T03:05:10.896Z,1.32
2018-11-23T03:07:39.663Z,1.26
2018-11-23T03:10:09.477Z,1.31
2018-11-23T03:12:38.542Z,1.31
2018-11-23T03:15:09.842Z,1.32
2018-11-23T03:17:38.558Z,1.32
2018-11-23T03:20:09.468Z,1.30
2018-11-23T03:23:41.327Z,1.29
2018-11-23T03:26:09.948Z,1.31
2018-11-23T03:28:38.498Z,1.32
2018-11-23T03:31:12.188Z,1.32
2018-11-23T03:33:35.719Z,1.33
2018-11-23T03:36:05.584Z,1.30
2018-11-23T03:38:34.289Z,1.29
2018-11-23T03:41:02.954Z,1.30
2018-11-23T03:43:31.535Z,1.27
2018-11-23T03:46:00.122Z,1.28
2018-11-23T03:48:28.744Z,1.27
2018-11-23T03:50:57.246Z,1.27
2018-11-23T03:53:25.869Z,1.28
2018-11-23T03:55:54.527Z,1.27
2018-11-23T03:58:23.194Z,1.29
2018-11-23T04:00:51.857Z,1.29
2018-11-23T04:03:20.782Z,1.29
2018-11-23T04:05:49.456Z,1.25
2018-11-23T04:08:18.010Z,1.30
2018-11-23T04:10:48.811Z,1.30
2018-11-23T04:13:17.953Z,1.29
2018-11-23T04:15:46.575Z,1.31
2018-11-23T04:18:15.271Z,1.32
2018-11-23T04:21:15.659Z,1.31
2018-11-23T04:23:44.252Z,1.28
2018-11-23T04:26:12.964Z,1.33
2018-11-23T04:28:41.477Z,1.33
2018-11-23T04:31:10.175Z,1.35
2018-11-23T04:33:38.741Z,1.37
2018-11-23T04:36:07.450Z,1.36
2018-11-23T04:38:36.195Z,1.36
2018-11-23T04:41:04.974Z,1.35
2018-11-23T04:43:33.588Z,1.36
2018-11-23T04:46:02.211Z,1.36
2018-11-23T04:48:30.843Z,1.37
2018-11-23T04:50:59.594Z,1.37
2018-11-23T04:53:28.160Z,1.38
2018-11-23T04:55:56.964Z,1.40
2018-11-23T04:58:25.541Z,1.42
2018-11-23T05:00:55.106Z,1.42
2018-11-23T05:03:23.701Z,1.43
2018-11-23T05:05:53.247Z,1.44
2018-11-23T05:08:21.893Z,1.47
2018-11-23T05:10:50.443Z,1.47
2018-11-23T05:13:19.115Z,1.48
2018-11-23T05:15:47.679Z,1.47
2018-11-23T05:18:16.413Z,1.49
2018-11-23T05:20:45.386Z,1.47
2018-11-23T05:23:13.899Z,1.50
2018-11-23T05:25:42.663Z,1.53
2018-11-23T05:28:11.501Z,1.54
2018-11-23T05:30:39.983Z,1.54
2018-11-23T05:33:08.525Z,1.53
2018-11-23T05:35:37.055Z,1.53
2018-11-23T05:38:05.718Z,1.52
2018-11-23T05:40:34.343Z,1.51
2018-11-23T05:43:04.442Z,1.52
2018-11-23T05:45:32.236Z,1.54
2018-11-23T05:48:01.003Z,1.52
2018-11-23T05:50:29.559Z,1.53
2018-11-23T05:52:59.722Z,1.52
2018-11-23T05:55:29.319Z,1.51
2018-11-23T05:57:57.953Z,1.47
2018-11-23T06:00:28.043Z,1.52
2018-11-23T06:02:56.782Z,1.53
2018-11-23T06:05:26.401Z,1.56
2018-11-23T06:07:55.008Z,1.53
2018-11-23T06:10:23.758Z,1.55
2018-11-23T06:12:52.540Z,1.58
2018-11-23T06:15:23.479Z,1.60
2018-11-23T06:17:52.272Z,1.62
2018-11-23T06:20:23.467Z,1.61
2018-11-23T06:22:52.828Z,1.61
2018-11-23T06:25:37.221Z,1.62
2018-11-23T06:28:06.234Z,1.63
2018-11-23T06:30:34.771Z,1.63
2018-11-23T06:33:15.185Z,1.65
2018-11-23T06:35:43.776Z,1.65
2018-11-23T06:38:12.458Z,1.65
2018-11-23T06:40:40.935Z,1.68
2018-11-23T06:43:09.446Z,1.69
2018-11-23T06:45:41.052Z,1.69
2018-11-23T06:48:10.643Z,1.72
2018-11-23T06:50:39.801Z,1.73
2018-11-23T06:53:08.563Z,1.75
2018-11-23T06:55:37.206Z,1.78
2018-11-23T06:58:06.195Z,1.79
2018-11-23T07:00:35.047Z,1.82
2018-11-23T07:03:03.646Z,1.84
2018-11-23T07:05:32.385Z,1.86
2018-11-23T07:08:01.061Z,1.90
2018-11-23T07:10:30.046Z,1.90
2018-11-23T07:12:58.694Z,1.91
2018-11-23T07:15:27.282Z,1.91
2018-11-23T07:17:55.827Z,1.92
2018-11-23T07:20:24.492Z,1.92
2018-11-23T07:22:53.095Z,1.96
2018-11-23T07:25:21.809Z,1.98
2018-11-23T07:27:50.688Z,1.99
2018-11-23T07:30:27.139Z,2.02
2018-11-23T07:32:56.030Z,2.04
2018-11-23T07:35:24.829Z,2.04
2018-11-23T07:37:53.543Z,2.07
2018-11-23T07:40:36.110Z,2.10
2018-11-23T07:43:05.745Z,2.14
2018-11-23T07:45:34.427Z,2.19
2018-11-23T07:48:03.135Z,2.22
2018-11-23T07:50:31.843Z,2.25
2018-11-23T07:53:00.784Z,2.27
2018-11-23T07:55:29.487Z,2.32
2018-11-23T07:57:58.124Z,2.36
2018-11-23T08:00:27.596Z,2.38
2018-11-23T08:02:56.296Z,2.39
2018-11-23T08:05:25.295Z,2.44
2018-11-23T08:07:53.943Z,2.49
2018-11-23T08:10:21.615Z,2.55
2018-11-23T08:12:50.971Z,2.59
2018-11-23T08:15:21.953Z,2.61
2018-11-23T08:17:50.736Z,2.65
2018-11-23T08:20:20.738Z,2.71
2018-11-23T08:22:49.351Z,2.75
2018-11-23T08:25:19.242Z,2.80
2018-11-23T08:27:48.891Z,2.81
2018-11-23T08:30:22.279Z,2.86
2018-11-23T08:32:50.805Z,2.87
2018-11-23T08:35:19.366Z,2.92
2018-11-23T08:37:48.028Z,3.04
2018-11-23T08:40:19.891Z,3.05
2018-11-23T08:42:49.318Z,3.02
2018-11-23T08:45:19.640Z,3.05
2018-11-23T08:47:48.459Z,3.02
2018-11-23T08:50:20.458Z,3.01
2018-11-23T08:52:49.971Z,3.03
2018-11-23T08:55:19.153Z,3.13
2018-11-23T08:57:47.778Z,3.21
2018-11-23T09:00:19.034Z,3.27
2018-11-23T09:02:48.798Z,3.26
2018-11-23T09:05:17.970Z,3.30
2018-11-23T09:07:47.615Z,3.31
2018-11-23T09:10:18.134Z,3.31
2018-11-23T09:12:49.432Z,3.32
2018-11-23T09:15:18.275Z,3.31
2018-11-23T09:17:47.129Z,3.36
2018-11-23T09:20:17.476Z,3.38
2018-11-23T09:22:46.110Z,3.43
2018-11-23T09:25:16.167Z,3.49
2018-11-23T09:27:45.008Z,3.55
2018-11-23T09:30:16.860Z,3.58
2018-11-23T09:32:46.134Z,3.59
2018-11-23T09:35:14.930Z,3.69
2018-11-23T09:37:44.521Z,3.77
2018-11-23T09:40:15.339Z,3.83
2018-11-23T09:42:44.053Z,3.89
2018-11-23T09:45:15.491Z,3.93
2018-11-23T09:47:44.981Z,4.03
2018-11-23T09:50:15.257Z,4.05
2018-11-23T09:52:44.536Z,4.13
2018-11-23T09:55:13.236Z,4.16
2018-11-23T09:57:41.989Z,4.17
2018-11-23T10:00:14.110Z,4.19
2018-11-23T10:02:43.124Z,4.19
2018-11-23T10:05:12.700Z,4.20
2018-11-23T10:07:41.946Z,4.17
2018-11-23T10:10:11.762Z,4.18
2018-11-23T10:12:40.638Z,4.22
2018-11-23T10:15:10.879Z,4.23
2018-11-23T10:17:39.516Z,4.20
2018-11-23T10:20:10.384Z,4.20
2018-11-23T10:22:39.133Z,4.23
2018-11-23T10:25:09.426Z,4.28
2018-11-23T10:27:38.487Z,4.29
2018-11-23T10:30:09.437Z,4.32
2018-11-23T10:32:38.043Z,4.35
2018-11-23T10:35:08.321Z,4.37
2018-11-23T10:37:37.394Z,4.33
2018-11-23T10:40:08.740Z,4.34
2018-11-23T10:42:37.372Z,4.42
2018-11-23T10:45:08.879Z,4.43
2018-11-23T10:47:37.703Z,4.42
2018-11-23T10:50:10.729Z,4.43
2018-11-23T10:52:39.592Z,4.44
2018-11-23T10:55:11.648Z,4.53
2018-11-23T10:57:40.447Z,4.60
2018-11-23T11:00:16.571Z,4.59
2018-11-23T11:02:46.643Z,4.58
2018-11-23T11:05:20.625Z,4.54
2018-11-23T11:07:49.290Z,4.53
2018-11-23T11:10:18.034Z,4.55
2018-11-23T11:12:46.775Z,4.65
2018-11-23T11:15:15.883Z,4.77
2018-11-23T11:17:44.421Z,4.87
2018-11-23T11:20:13.187Z,4.91
2018-11-23T11:22:41.684Z,5.01
2018-11-23T11:25:11.286Z,5.11
2018-11-23T11:27:40.407Z,5.15
2018-11-23T11:30:11.675Z,5.20
2018-11-23T11:32:40.487Z,5.22
2018-11-23T11:35:10.098Z,5.23
2018-11-23T11:37:38.936Z,5.35
2018-11-23T11:40:09.590Z,5.44
2018-11-23T11:42:39.449Z,5.55
2018-11-23T11:45:10.082Z,5.65
2018-11-23T11:47:38.816Z,5.77
2018-11-23T11:50:09.387Z,6.00
2018-11-23T11:52:39.600Z,6.30
2018-11-23T11:55:10.164Z,6.73
2018-11-23T11:57:38.715Z,7.14
2018-11-23T12:00:09.790Z,7.31
2018-11-23T12:02:38.339Z,7.59
2018-11-23T12:05:08.218Z,7.87
2018-11-23T12:07:36.761Z,7.98
2018-11-23T12:10:07.174Z,8.12
2018-11-23T12:12:35.729Z,8.09
2018-11-23T12:15:04.387Z,8.23
2018-11-23T12:17:33.785Z,8.55
2018-11-23T12:20:02.380Z,8.73
2018-11-23T12:22:31.061Z,8.89
2018-11-23T12:24:59.703Z,9.09
2018-11-23T12:27:29.506Z,9.40
2018-11-23T12:29:57.510Z,9.62
2018-11-23T12:32:27.275Z,9.81
2018-11-23T12:34:55.824Z,10.20
2018-11-23T12:37:25.030Z,10.14
2018-11-23T12:39:53.452Z,10.36
2018-11-23T12:42:22.265Z,10.68
2018-11-23T12:44:50.827Z,10.80
2018-11-23T12:47:19.771Z,10.93
2018-11-23T12:49:48.365Z,10.64
2018-11-23T12:52:17.088Z,10.89
2018-11-23T12:54:45.734Z,11.14
2018-11-23T12:57:14.419Z,11.31
2018-11-23T12:59:43.003Z,11.43
2018-11-23T13:02:11.729Z,11.03
2018-11-23T13:04:40.412Z,10.61
2018-11-23T13:07:09.191Z,10.47
2018-11-23T13:09:39.987Z,10.41
2018-11-23T13:12:09.605Z,10.25
2018-11-23T13:14:38.056Z,10.11
2018-11-23T13:17:07.490Z,9.58
2018-11-23T13:19:36.181Z,9.01
2018-11-23T13:22:04.815Z,8.55
2018-11-23T13:24:33.431Z,8.12
2018-11-23T13:27:02.074Z,7.73
2018-11-23T13:29:30.916Z,7.59
2018-11-23T13:32:00.223Z,7.45
2018-11-23T13:34:28.280Z,7.29
2018-11-23T13:36:56.905Z,7.24
2018-11-23T13:39:25.526Z,7.07
2018-11-23T13:41:54.228Z,6.93
2018-11-23T13:44:22.735Z,6.86
2018-11-23T13:46:51.528Z,6.74
2018-11-23T13:49:20.168Z,6.70
2018-11-23T13:51:48.690Z,6.52
2018-11-23T13:54:17.903Z,6.48
2018-11-23T13:56:46.712Z,6.44
2018-11-23T13:59:16.232Z,6.44
2018-11-23T14:01:45.408Z,6.27
2018-11-23T14:04:14.404Z,6.18
2018-11-23T14:06:43.015Z,6.05
2018-11-23T14:09:12.332Z,5.98
2018-11-23T14:11:42.098Z,5.93
2018-11-23T14:14:11.509Z,5.89
2018-11-23T14:16:40.194Z,5.80
2018-11-23T14:19:08.850Z,5.73
2018-11-23T14:21:37.772Z,5.70
2018-11-23T14:24:06.768Z,5.59
2018-11-23T14:26:35.769Z,5.53
2018-11-23T14:29:06.190Z,5.47
2018-11-23T14:31:36.662Z,5.38
2018-11-23T14:34:05.802Z,5.34
2018-11-23T14:36:35.507Z,5.31
2018-11-23T14:39:05.937Z,5.29
2018-11-23T14:41:34.584Z,5.26
2018-11-23T14:44:07.001Z,5.24
2018-11-23T14:46:32.732Z,5.23
2018-11-23T14:49:01.359Z,5.25
2018-11-23T14:51:29.924Z,5.21
2018-11-23T14:53:58.564Z,5.18
2018-11-23T14:56:27.331Z,5.16
2018-11-23T14:58:55.909Z,5.10
2018-11-23T15:01:25.154Z,5.06
2018-11-23T15:03:53.870Z,4.94
2018-11-23T15:06:22.591Z,4.85
2018-11-23T15:08:51.120Z,4.78
2018-11-23T15:11:20.099Z,4.75
2018-11-23T15:13:48.811Z,4.75
2018-11-23T15:16:17.562Z,4.76
2018-11-23T15:18:46.551Z,4.79
2018-11-23T15:21:15.244Z,4.82
2018-11-23T15:23:43.780Z,4.84
2018-11-23T15:26:12.314Z,4.86
2018-11-23T15:28:40.840Z,4.91
2018-11-23T15:31:09.424Z,4.93
2018-11-23T15:33:40.093Z,4.91
2018-11-23T15:36:09.679Z,4.92
2018-11-23T15:38:38.367Z,4.92
2018-11-23T15:41:06.969Z,4.91
2018-11-23T15:43:35.681Z,4.95
2018-11-23T15:46:04.371Z,4.97
2018-11-23T15:48:33.040Z,4.99
2018-11-23T15:51:06.871Z,4.99
2018-11-23T15:53:35.851Z,4.96
2018-11-23T15:56:04.706Z,4.98
2018-11-23T15:58:33.401Z,4.97
2018-11-23T16:01:02.160Z,4.90
2018-11-23T16:03:30.956Z,4.85
2018-11-23T16:05:59.535Z,4.80
2018-11-23T16:08:28.159Z,4.76
2018-11-23T16:10:56.697Z,4.72
2018-11-23T16:13:25.377Z,4.71
2018-11-23T16:15:54.011Z,4.70
2018-11-23T16:18:22.508Z,4.69
2018-11-23T16:20:51.002Z,4.66
2018-11-23T16:23:21.091Z,4.61
2018-11-23T16:25:50.371Z,4.55
2018-11-23T16:28:19.089Z,4.47
2018-11-23T16:30:49.169Z,4.35
2018-11-23T16:33:19.430Z,4.23
2018-11-23T16:35:48.853Z,4.15
2018-11-23T16:38:18.992Z,4.05
2018-11-23T16:40:49.421Z,3.95
2018-11-23T16:43:18.147Z,3.89
2018-11-23T16:45:47.407Z,3.85
2018-11-23T16:48:18.390Z,3.84
2018-11-23T16:50:49.017Z,3.85
2018-11-23T16:53:18.537Z,3.85
2018-11-23T16:55:47.368Z,3.87
2018-11-23T16:58:16.316Z,3.95
2018-11-23T17:00:46.404Z,4.01
2018-11-23T17:03:17.715Z,4.08
2018-11-23T17:05:48.138Z,4.15
2018-11-23T17:08:18.394Z,4.20
2018-11-23T17:10:47.070Z,4.25
2018-11-23T17:13:16.451Z,4.29
2018-11-23T17:15:45.023Z,4.38
2018-11-23T17:18:13.751Z,4.41
2018-11-23T17:20:42.785Z,4.47
2018-11-23T17:23:12.479Z,4.53
2018-11-23T17:25:41.019Z,4.56
2018-11-23T17:28:10.894Z,4.61
2018-11-23T17:30:39.728Z,4.64
2018-11-23T17:33:08.702Z,4.67
2018-11-23T17:35:37.586Z,4.68
2018-11-23T17:38:06.593Z,4.70
2018-11-23T17:40:37.010Z,4.73
2018-11-23T17:43:06.045Z,4.74
2018-11-23T17:45:36.000Z,4.74
2018-11-23T17:48:04.692Z,4.76
2018-11-23T17:50:34.831Z,4.75
2018-11-23T17:53:03.484Z,4.76
2018-11-23T17:55:32.317Z,4.78
2018-11-23T17:58:01.717Z,4.81
2018-11-23T18:00:38.532Z,4.82
2018-11-23T18:03:01.826Z,4.86
2018-11-23T18:05:32.126Z,4.88
2018-11-23T18:08:01.470Z,4.89
2018-11-23T18:10:31.419Z,4.92
2018-11-23T18:13:00.708Z,4.95
2018-11-23T18:15:31.265Z,4.96
2018-11-23T18:18:00.922Z,4.97
2018-11-23T18:20:30.344Z,4.97
2018-11-23T18:22:59.680Z,4.97
2018-11-23T18:25:37.196Z,4.97
2018-11-23T18:28:06.392Z,4.95
2018-11-23T18:30:35.553Z,4.97
2018-11-23T18:33:06.637Z,4.97
2018-11-23T18:35:35.477Z,4.94
2018-11-23T18:38:04.085Z,4.95
2018-11-23T18:40:37.302Z,4.95
2018-11-23T18:43:01.927Z,4.94
2018-11-23T18:45:30.816Z,4.95
2018-11-23T18:48:00.465Z,4.94
2018-11-23T18:50:29.163Z,4.93
2018-11-23T18:52:58.050Z,4.92
2018-11-23T18:55:26.672Z,4.91
2018-11-23T18:57:55.306Z,4.91
2018-11-23T19:00:23.995Z,4.91
2018-11-23T19:02:52.682Z,4.91
2018-11-23T19:05:23.197Z,4.90
2018-11-23T19:07:51.876Z,4.90
2018-11-23T19:10:20.636Z,4.90
2018-11-23T19:12:49.262Z,4.90
2018-11-23T19:15:25.355Z,4.89
2018-11-23T19:17:47.659Z,4.89
2018-11-23T19:20:20.019Z,4.90
2018-11-23T19:22:49.977Z,4.91
2018-11-23T19:25:18.694Z,4.91
2018-11-23T19:27:47.350Z,4.90
2018-11-23T19:30:18.345Z,4.90
2018-11-23T19:32:47.272Z,4.91
2018-11-23T19:35:16.065Z,4.91
2018-11-23T19:37:44.589Z,4.92
2018-11-23T19:40:17.091Z,4.90
2018-11-23T19:42:47.970Z,4.90
2018-11-23T19:45:17.672Z,4.90
2018-11-23T19:47:46.367Z,4.90
2018-11-23T19:50:18.138Z,4.91
2018-11-23T19:52:48.007Z,4.91
2018-11-23T19:55:18.006Z,4.93
2018-11-23T19:57:47.254Z,4.92
2018-11-23T20:00:19.766Z,4.94
2018-11-23T20:02:48.554Z,4.95
2018-11-23T20:05:17.474Z,4.95
2018-11-23T20:07:47.182Z,4.97
2018-11-23T20:10:18.893Z,4.98
2018-11-23T20:12:48.553Z,4.99
2018-11-23T20:15:18.616Z,4.98
2018-11-23T20:17:47.682Z,4.96
2018-11-23T20:20:17.116Z,4.97
2018-11-23T20:22:47.061Z,4.93
2018-11-23T20:25:18.515Z,4.93
2018-11-23T20:27:47.961Z,4.95
2018-11-23T20:30:18.715Z,4.95
2018-11-23T20:32:47.602Z,4.93
2018-11-23T20:35:18.302Z,4.91
2018-11-23T20:37:47.293Z,4.93
2018-11-23T20:40:17.127Z,4.91
2018-11-23T20:42:46.126Z,4.92
2018-11-23T20:45:14.895Z,4.89
2018-11-23T20:47:43.441Z,4.87
2018-11-23T20:50:13.309Z,4.87
2018-11-23T20:52:42.673Z,4.84
2018-11-23T20:55:14.574Z,4.82
2018-11-23T20:57:43.327Z,4.83
2018-11-23T21:00:17.910Z,4.83
2018-11-23T21:02:47.788Z,4.82
2018-11-23T21:05:17.914Z,4.82
2018-11-23T21:07:46.471Z,4.84
2018-11-23T21:10:20.255Z,4.85
2018-11-23T21:12:46.875Z,4.87
2018-11-23T21:15:29.393Z,4.87
2018-11-23T21:17:59.506Z,4.89
2018-11-23T21:20:28.286Z,4.89
2018-11-23T21:22:56.907Z,4.90
2018-11-23T21:25:25.391Z,4.91
2018-11-23T21:27:54.153Z,4.93
2018-11-23T21:30:23.919Z,4.91
2018-11-23T21:32:53.740Z,4.94
2018-11-23T21:35:23.628Z,4.94
2018-11-23T21:37:52.313Z,4.94
2018-11-23T21:40:21.103Z,4.95
2018-11-23T21:42:49.854Z,4.94
2018-11-23T21:45:19.904Z,4.94
2018-11-23T21:47:48.592Z,4.94
2018-11-23T21:50:25.484Z,4.96
2018-11-23T21:52:51.537Z,4.96
2018-11-23T21:55:21.738Z,4.97
2018-11-23T21:57:50.436Z,4.97
2018-11-23T22:00:19.055Z,4.95
2018-11-23T22:02:48.008Z,4.95
2018-11-23T22:05:16.773Z,4.94
2018-11-23T22:07:45.553Z,4.95
2018-11-23T22:10:17.367Z,4.98
2018-11-23T22:12:47.217Z,4.99
2018-11-23T22:15:30.822Z,4.99
2018-11-23T22:17:59.599Z,4.99
2018-11-23T22:20:28.206Z,5.02
2018-11-23T22:22:56.834Z,5.02
2018-11-23T22:25:25.442Z,5.02
2018-11-23T22:27:54.148Z,5.04
2018-11-23T22:30:24.355Z,5.04
2018-11-23T22:32:52.965Z,5.04
2018-11-23T22:35:21.780Z,5.05
2018-11-23T22:37:50.441Z,5.05
2018-11-23T22:40:20.094Z,5.04
2018-11-23T22:42:49.817Z,5.02
2018-11-23T22:45:18.623Z,5.02
2018-11-23T22:47:47.197Z,5.05
2018-11-23T22:50:17.367Z,5.06
2018-11-23T22:52:47.719Z,5.06
2018-11-23T22:55:16.336Z,5.09
2018-11-23T22:57:44.968Z,5.10
2018-11-23T23:00:26.403Z,5.11
2018-11-23T23:02:55.248Z,5.11
2018-11-23T23:05:24.511Z,5.10
2018-11-23T23:07:53.061Z,5.09
2018-11-23T23:10:21.670Z,5.09
2018-11-23T23:12:50.884Z,5.08
2018-11-23T23:15:19.728Z,5.09
2018-11-23T23:17:48.273Z,5.08
2018-11-23T23:20:21.172Z,5.06
2018-11-23T23:22:51.746Z,5.05
2018-11-23T23:25:20.259Z,5.05
2018-11-23T23:27:48.881Z,5.04
2018-11-23T23:30:18.466Z,5.04
2018-11-23T23:32:48.034Z,5.04
2018-11-23T23:35:17.369Z,5.05
2018-11-23T23:37:46.236Z,5.05
2018-11-23T23:40:17.668Z,5.06
2018-11-23T23:42:46.920Z,5.05
2018-11-23T23:45:16.943Z,5.05
2018-11-23T23:47:45.640Z,5.06
2018-11-23T23:50:16.835Z,5.06
2018-11-23T23:52:45.619Z,5.08
2018-11-23T23:55:14.598Z,5.06
2018-11-23T23:57:44.465Z,5.07
